createdAt,value
2018-07-24T00:00:32.868Z,8.07
2018-07-24T00:03:03.586Z,8.10
2018-07-24T00:05:34.210Z,8.03
2018-07-24T00:08:05.466Z,8.23
2018-07-24T00:10:36.662Z,7.80
2018-07-24T00:13:08.287Z,7.90
2018-07-24T00:15:39.401Z,8.30
2018-07-24T00:18:11.046Z,7.67
2018-07-24T00:20:42.179Z,8.17
2018-07-24T00:23:13.836Z,7.80
2018-07-24T00:25:45.005Z,7.70
2018-07-24T00:28:16.169Z,8.07
2018-07-24T00:30:47.346Z,7.67
2018-07-24T00:33:18.503Z,7.87
2018-07-24T00:35:49.495Z,7.70
2018-07-24T00:38:21.066Z,7.90
2018-07-24T00:40:52.536Z,7.47
2018-07-24T00:43:23.899Z,7.20
2018-07-24T00:45:55.251Z,7.90
2018-07-24T00:48:27.013Z,7.80
2018-07-24T00:50:58.575Z,7.50
2018-07-24T00:53:29.645Z,8.30
2018-07-24T00:56:00.351Z,7.90
2018-07-24T00:58:31.012Z,7.83
2018-07-24T01:01:01.719Z,7.80
2018-07-24T01:03:31.799Z,7.97
2018-07-24T01:06:02.516Z,7.87
2018-07-24T01:08:33.233Z,8.13
2018-07-24T01:11:03.884Z,8.53
2018-07-24T01:13:34.523Z,7.33
2018-07-24T01:16:05.400Z,7.97
2018-07-24T01:18:36.074Z,7.87
2018-07-24T01:21:06.729Z,7.90
2018-07-24T01:23:37.461Z,7.83
2018-07-24T01:26:08.195Z,8.33
2018-07-24T01:28:38.881Z,8.37
2018-07-24T01:31:09.543Z,8.67
2018-07-24T01:33:40.196Z,8.03
2018-07-24T01:36:10.863Z,7.83
2018-07-24T01:38:41.541Z,8.13
2018-07-24T01:41:11.732Z,7.80
2018-07-24T01:43:42.392Z,8.00
2018-07-24T01:46:13.658Z,7.97
2018-07-24T01:48:44.299Z,7.47
2018-07-24T01:51:14.965Z,8.30
2018-07-24T01:53:45.747Z,7.83
2018-07-24T01:56:16.439Z,8.03
2018-07-24T01:58:47.131Z,7.67
2018-07-24T02:01:17.815Z,7.90
2018-07-24T02:03:48.541Z,8.17
2018-07-24T02:06:19.282Z,8.10
2018-07-24T02:08:49.943Z,7.77
2018-07-24T02:11:20.036Z,8.33
2018-07-24T02:13:51.004Z,7.93
2018-07-24T02:16:21.662Z,7.97
2018-07-24T02:18:52.338Z,8.23
2018-07-24T02:21:23.004Z,8.23
2018-07-24T02:23:53.710Z,8.13
2018-07-24T02:26:24.386Z,7.57
2018-07-24T02:28:55.089Z,8.03
2018-07-24T02:31:25.768Z,7.47
2018-07-24T02:33:56.442Z,7.70
2018-07-24T02:36:27.109Z,8.10
2018-07-24T02:38:57.801Z,8.37
2018-07-24T02:41:28.439Z,8.00
2018-07-24T02:43:59.175Z,7.83
2018-07-24T02:46:29.852Z,7.93
2018-07-24T02:49:00.564Z,7.77
2018-07-24T02:51:30.814Z,8.10
2018-07-24T02:54:01.622Z,8.03
2018-07-24T02:56:32.376Z,7.97
2018-07-24T02:59:03.087Z,8.17
2018-07-24T03:01:33.771Z,8.20
2018-07-24T03:04:04.476Z,7.97
2018-07-24T03:06:35.262Z,7.63
2018-07-24T03:09:09.357Z,8.10
2018-07-24T03:11:40.371Z,8.30
2018-07-24T03:14:11.281Z,8.73
2018-07-24T03:16:41.961Z,8.73
2018-07-24T03:19:12.636Z,8.33
2018-07-24T03:21:43.375Z,8.57
2018-07-24T03:24:14.054Z,8.60
2018-07-24T03:26:44.701Z,8.40
2018-07-24T03:29:15.372Z,8.80
2018-07-24T03:31:46.105Z,8.00
2018-07-24T03:34:16.839Z,8.30
2018-07-24T03:36:47.479Z,8.20
2018-07-24T03:39:18.164Z,8.30
2018-07-24T03:41:49.052Z,8.33
2018-07-24T03:44:19.779Z,8.77
2018-07-24T03:46:50.450Z,8.87
2018-07-24T03:49:21.141Z,8.50
2018-07-24T03:51:51.820Z,8.60
2018-07-24T03:54:22.570Z,9.10
2018-07-24T03:56:53.245Z,8.87
2018-07-24T03:59:24.189Z,8.97
2018-07-24T04:01:57.894Z,9.10
2018-07-24T04:04:28.573Z,8.77
2018-07-24T04:06:59.204Z,8.87
2018-07-24T04:09:29.850Z,9.20
2018-07-24T04:12:00.509Z,8.53
2018-07-24T04:14:31.230Z,8.93
2018-07-24T04:17:01.893Z,9.30
2018-07-24T04:19:32.533Z,8.33
2018-07-24T04:22:03.220Z,8.70
2018-07-24T04:24:33.959Z,8.90
2018-07-24T04:27:04.703Z,8.73
2018-07-24T04:29:35.377Z,9.20
2018-07-24T04:32:06.078Z,9.20
2018-07-24T04:34:36.698Z,8.63
2018-07-24T04:37:07.563Z,8.87
2018-07-24T04:39:38.235Z,8.97
2018-07-24T04:42:09.339Z,8.70
2018-07-24T04:44:40.145Z,9.43
2018-07-24T04:47:10.968Z,9.00
2018-07-24T04:49:42.200Z,9.00
2018-07-24T04:52:12.901Z,9.40
2018-07-24T04:54:44.197Z,8.87
2018-07-24T04:57:14.835Z,9.00
2018-07-24T04:59:45.554Z,9.00
2018-07-24T05:02:16.267Z,9.87
2018-07-24T05:04:46.983Z,8.80
2018-07-24T05:07:17.674Z,9.10
2018-07-24T05:09:48.350Z,8.80
2018-07-24T05:12:19.050Z,9.30
2018-07-24T05:14:50.019Z,9.03
2018-07-24T05:17:20.717Z,8.33
2018-07-24T05:19:51.435Z,8.83
2018-07-24T05:22:22.160Z,9.23
2018-07-24T05:24:52.834Z,9.80
2018-07-24T05:27:23.512Z,9.37
2018-07-24T05:29:54.183Z,9.43
2018-07-24T05:32:24.858Z,8.83
2018-07-24T05:34:55.503Z,9.60
2018-07-24T05:37:26.160Z,9.07
2018-07-24T05:39:56.778Z,9.30
2018-07-24T05:42:27.462Z,9.57
2018-07-24T05:44:58.231Z,9.97
2018-07-24T05:47:28.902Z,9.93
2018-07-24T05:49:59.540Z,10.00
2018-07-24T05:52:30.237Z,10.30
2018-07-24T05:55:00.909Z,9.93
2018-07-24T05:57:31.579Z,9.57
2018-07-24T06:00:02.260Z,9.90
2018-07-24T06:02:32.910Z,10.67
2018-07-24T06:05:03.635Z,10.17
2018-07-24T06:07:34.388Z,10.73
2018-07-24T06:10:05.525Z,10.73
2018-07-24T06:12:36.170Z,10.80
2018-07-24T06:15:08.986Z,11.50
2018-07-24T06:17:39.662Z,11.13
2018-07-24T06:20:11.496Z,11.37
2018-07-24T06:22:42.170Z,11.47
2018-07-24T06:25:12.849Z,11.37
2018-07-24T06:27:43.493Z,11.13
2018-07-24T06:30:14.155Z,11.30
2018-07-24T06:32:44.239Z,10.67
2018-07-24T06:35:14.879Z,10.47
2018-07-24T06:37:45.546Z,11.50
2018-07-24T06:40:16.219Z,10.40
2018-07-24T06:42:47.014Z,10.63
2018-07-24T06:45:17.719Z,11.40
2018-07-24T06:47:48.374Z,10.60
2018-07-24T06:50:19.039Z,9.70
2018-07-24T06:52:49.791Z,8.97
2018-07-24T06:55:20.528Z,10.30
2018-07-24T06:57:51.177Z,10.63
2018-07-24T07:00:21.868Z,10.40
2018-07-24T07:02:52.550Z,9.63
2018-07-24T07:05:23.232Z,10.13
2018-07-24T07:07:53.922Z,10.70
2018-07-24T07:10:24.684Z,10.50
2018-07-24T07:12:58.179Z,11.47
2018-07-24T07:15:28.951Z,11.07
2018-07-24T07:17:59.681Z,11.07
2018-07-24T07:20:30.440Z,11.50
2018-07-24T07:23:01.193Z,12.03
2018-07-24T07:25:31.893Z,10.57
2018-07-24T07:28:02.599Z,10.90
2018-07-24T07:30:33.332Z,12.23
2018-07-24T07:33:04.681Z,10.73
2018-07-24T07:35:35.334Z,11.27
2018-07-24T07:38:06.254Z,10.13
2018-07-24T07:40:36.915Z,10.60
2018-07-24T07:43:07.651Z,10.63
2018-07-24T07:45:38.420Z,9.93
2018-07-24T07:48:09.088Z,9.70
2018-07-24T07:50:39.768Z,9.07
2018-07-24T07:53:10.425Z,10.03
2018-07-24T07:55:41.105Z,9.63
2018-07-24T07:58:11.787Z,9.63
2018-07-24T08:00:42.499Z,9.80
2018-07-24T08:03:13.188Z,9.33
2018-07-24T08:05:43.835Z,10.13
2018-07-24T08:08:14.559Z,10.07
2018-07-24T08:10:45.208Z,9.10
2018-07-24T08:13:15.900Z,8.83
2018-07-24T08:15:46.617Z,8.87
2018-07-24T08:18:17.388Z,8.70
2018-07-24T08:20:48.023Z,8.37
2018-07-24T08:23:18.704Z,8.20
2018-07-24T08:25:49.370Z,7.50
2018-07-24T08:28:20.027Z,7.60
2018-07-24T08:30:50.930Z,7.47
2018-07-24T08:33:21.700Z,7.10
2018-07-24T08:35:52.362Z,7.07
2018-07-24T08:38:23.126Z,7.70
2018-07-24T08:40:53.318Z,7.60
2018-07-24T08:43:24.036Z,7.10
2018-07-24T08:45:54.845Z,7.20
2018-07-24T08:48:25.541Z,6.80
2018-07-24T08:50:56.206Z,7.20
2018-07-24T08:53:27.263Z,7.17
2018-07-24T08:55:57.611Z,7.13
2018-07-24T08:58:28.291Z,7.30
2018-07-24T09:00:58.971Z,7.63
2018-07-24T09:03:29.728Z,7.70
2018-07-24T09:06:00.420Z,7.33
2018-07-24T09:08:31.130Z,7.10
2018-07-24T09:11:01.816Z,6.75
2018-07-24T09:13:32.537Z,7.47
2018-07-24T09:16:03.282Z,6.90
2018-07-24T09:18:33.964Z,6.35
2018-07-24T09:21:04.746Z,6.35
2018-07-24T09:23:35.335Z,6.37
2018-07-24T09:26:05.458Z,6.60
2018-07-24T09:28:36.250Z,6.42
2018-07-24T09:31:06.964Z,6.30
2018-07-24T09:33:37.714Z,5.58
2018-07-24T09:36:08.406Z,5.53
2018-07-24T09:38:39.114Z,6.00
2018-07-24T09:41:09.801Z,6.67
2018-07-24T09:43:40.438Z,5.92
2018-07-24T09:46:11.078Z,6.03
2018-07-24T09:48:41.763Z,6.35
2018-07-24T09:51:12.377Z,6.10
2018-07-24T09:53:43.022Z,6.33
2018-07-24T09:56:13.744Z,6.28
2018-07-24T09:58:44.413Z,6.40
2018-07-24T10:01:20.147Z,6.12
2018-07-24T10:03:50.877Z,5.87
2018-07-24T10:06:21.563Z,5.58
2018-07-24T10:08:52.249Z,6.03
2018-07-24T10:11:22.338Z,5.97
2018-07-24T10:13:53.125Z,5.42
2018-07-24T10:16:23.796Z,5.40
2018-07-24T10:18:54.492Z,6.12
2018-07-24T10:21:25.150Z,5.92
2018-07-24T10:23:55.899Z,5.92
2018-07-24T10:26:26.543Z,5.87
2018-07-24T10:28:57.205Z,5.65
2018-07-24T10:31:27.875Z,5.28
2018-07-24T10:33:58.004Z,5.50
2018-07-24T10:36:28.639Z,5.55
2018-07-24T10:38:59.473Z,5.55
2018-07-24T10:41:29.548Z,5.45
2018-07-24T10:44:00.191Z,5.15
2018-07-24T10:46:30.885Z,5.33
2018-07-24T10:49:00.987Z,5.12
2018-07-24T10:51:31.940Z,5.35
2018-07-24T10:54:02.819Z,5.40
2018-07-24T10:56:34.160Z,5.20
2018-07-24T10:59:04.984Z,5.53
2018-07-24T11:01:35.687Z,5.62
2018-07-24T11:04:06.469Z,5.40
2018-07-24T11:06:37.147Z,5.60
2018-07-24T11:09:10.299Z,5.53
2018-07-24T11:11:40.968Z,5.42
2018-07-24T11:14:11.607Z,5.50
2018-07-24T11:16:42.810Z,5.45
2018-07-24T11:19:13.480Z,5.10
2018-07-24T11:21:44.183Z,5.42
2018-07-24T11:24:14.864Z,5.50
2018-07-24T11:26:47.539Z,5.40
2018-07-24T11:29:18.184Z,5.42
2018-07-24T11:31:48.854Z,5.65
2018-07-24T11:34:19.697Z,5.55
2018-07-24T11:36:50.365Z,5.58
2018-07-24T11:39:21.143Z,5.80
2018-07-24T11:41:51.813Z,5.80
2018-07-24T11:44:23.453Z,5.00
2018-07-24T11:46:54.189Z,5.25
2018-07-24T11:49:24.926Z,5.08
2018-07-24T11:51:55.663Z,4.72
2018-07-24T11:54:26.238Z,4.90
2018-07-24T11:56:56.933Z,4.80
2018-07-24T11:59:27.594Z,5.08
2018-07-24T12:01:58.247Z,5.05
2018-07-24T12:04:28.864Z,4.90
2018-07-24T12:06:59.503Z,4.47
2018-07-24T12:09:30.241Z,5.10
2018-07-24T12:12:00.868Z,4.72
2018-07-24T12:14:31.581Z,4.80
2018-07-24T12:17:02.350Z,5.33
2018-07-24T12:19:32.986Z,5.42
2018-07-24T12:22:03.756Z,5.20
2018-07-24T12:24:34.835Z,5.35
2018-07-24T12:27:06.014Z,5.28
2018-07-24T12:29:36.679Z,5.45
2018-07-24T12:32:07.412Z,5.00
2018-07-24T12:34:38.084Z,5.35
2018-07-24T12:37:08.818Z,5.50
2018-07-24T12:39:39.499Z,4.83
2018-07-24T12:42:10.259Z,5.25
2018-07-24T12:44:40.926Z,5.47
2018-07-24T12:47:12.138Z,5.58
2018-07-24T12:49:42.903Z,5.22
2018-07-24T12:52:13.547Z,5.55
2018-07-24T12:54:44.239Z,6.00
2018-07-24T12:57:14.922Z,6.03
2018-07-24T12:59:45.642Z,5.50
2018-07-24T13:02:16.314Z,5.42
2018-07-24T13:04:46.938Z,6.08
2018-07-24T13:07:17.052Z,5.55
2018-07-24T13:09:47.718Z,6.00
2018-07-24T13:12:18.388Z,6.05
2018-07-24T13:14:49.044Z,5.75
2018-07-24T13:17:19.699Z,6.10
2018-07-24T13:19:50.359Z,5.62
2018-07-24T13:22:21.022Z,6.00
2018-07-24T13:24:51.671Z,5.92
2018-07-24T13:27:22.357Z,6.00
2018-07-24T13:29:53.068Z,5.35
2018-07-24T13:32:23.729Z,5.10
2018-07-24T13:34:54.453Z,5.70
2018-07-24T13:37:25.172Z,5.85
2018-07-24T13:39:55.934Z,5.67
2018-07-24T13:42:26.599Z,5.08
2018-07-24T13:44:57.298Z,5.35
2018-07-24T13:47:27.968Z,5.40
2018-07-24T13:49:58.657Z,5.33
2018-07-24T13:52:29.331Z,4.60
2018-07-24T13:55:00.034Z,4.90
2018-07-24T13:57:30.861Z,5.12
2018-07-24T14:00:01.557Z,5.20
2018-07-24T14:03:34.555Z,5.15
2018-07-24T14:06:05.275Z,5.50
2018-07-24T14:08:35.999Z,4.87
2018-07-24T14:11:06.852Z,5.35
2018-07-24T14:13:37.563Z,4.83
2018-07-24T14:16:08.364Z,5.25
2018-07-24T14:18:39.035Z,5.03
2018-07-24T14:21:09.751Z,5.42
2018-07-24T14:23:40.408Z,4.83
2018-07-24T14:26:11.448Z,4.95
2018-07-24T14:28:42.127Z,5.00
2018-07-24T14:31:12.782Z,4.67
2018-07-24T14:33:43.555Z,5.25
2018-07-24T14:36:14.288Z,5.25
2018-07-24T14:38:45.021Z,4.90
2018-07-24T14:41:15.712Z,4.72
2018-07-24T14:43:46.012Z,4.97
2018-07-24T14:46:16.762Z,5.25
2018-07-24T14:48:47.451Z,5.15
2018-07-24T14:51:18.171Z,4.90
2018-07-24T14:53:48.863Z,5.08
2018-07-24T14:56:19.537Z,5.28
2018-07-24T14:58:50.269Z,5.50
2018-07-24T15:01:20.915Z,5.20
2018-07-24T15:03:51.567Z,5.45
2018-07-24T15:06:22.268Z,5.33
2018-07-24T15:08:52.998Z,5.25
2018-07-24T15:11:23.668Z,5.33
2018-07-24T15:13:54.333Z,4.70
2018-07-24T15:16:25.024Z,5.15
2018-07-24T15:18:55.666Z,5.40
2018-07-24T15:21:26.650Z,4.60
2018-07-24T15:23:57.323Z,5.28
2018-07-24T15:26:27.975Z,4.97
2018-07-24T15:28:58.690Z,5.25
2018-07-24T15:31:29.398Z,5.30
2018-07-24T15:34:00.187Z,5.60
2018-07-24T15:36:30.898Z,5.58
2018-07-24T15:39:02.457Z,5.37
2018-07-24T15:41:33.149Z,5.50
2018-07-24T15:44:03.936Z,5.30
2018-07-24T15:46:34.677Z,5.10
2018-07-24T15:49:05.454Z,5.58
2018-07-24T15:51:36.125Z,5.25
2018-07-24T15:54:06.883Z,5.28
2018-07-24T15:56:36.990Z,5.45
2018-07-24T15:59:07.677Z,5.70
2018-07-24T16:01:38.360Z,5.62
2018-07-24T16:04:09.113Z,6.17
2018-07-24T16:06:39.765Z,5.50
2018-07-24T16:09:13.516Z,5.60
2018-07-24T16:11:44.216Z,6.10
2018-07-24T16:14:14.888Z,5.42
2018-07-24T16:16:45.588Z,5.37
2018-07-24T16:19:16.258Z,5.75
2018-07-24T16:21:46.393Z,5.95
2018-07-24T16:24:17.064Z,5.35
2018-07-24T16:26:47.728Z,5.58
2018-07-24T16:29:18.438Z,5.97
2018-07-24T16:31:49.234Z,5.40
2018-07-24T16:34:19.910Z,5.58
2018-07-24T16:36:50.574Z,5.97
2018-07-24T16:39:21.315Z,5.83
2018-07-24T16:41:51.955Z,5.75
2018-07-24T16:44:23.056Z,6.22
2018-07-24T16:46:53.752Z,6.05
2018-07-24T16:49:24.460Z,6.05
2018-07-24T16:51:55.158Z,5.87
2018-07-24T16:54:25.801Z,6.10
2018-07-24T16:56:56.483Z,6.42
2018-07-24T16:59:27.163Z,6.47
2018-07-24T17:01:57.841Z,6.60
2018-07-24T17:04:28.534Z,6.55
2018-07-24T17:06:59.219Z,6.55
2018-07-24T17:09:30.240Z,6.30
2018-07-24T17:12:00.929Z,6.22
2018-07-24T17:14:31.608Z,6.37
2018-07-24T17:17:02.286Z,6.22
2018-07-24T17:19:32.979Z,6.10
2018-07-24T17:22:03.670Z,7.43
2018-07-24T17:24:34.361Z,8.00
2018-07-24T17:27:05.081Z,6.80
2018-07-24T17:29:35.876Z,6.80
2018-07-24T17:32:07.006Z,6.43
2018-07-24T17:34:37.689Z,6.87
2018-07-24T17:37:08.388Z,7.77
2018-07-24T17:39:39.103Z,6.83
2018-07-24T17:42:09.860Z,6.67
2018-07-24T17:44:40.636Z,7.27
2018-07-24T17:47:11.764Z,7.60
2018-07-24T17:49:42.467Z,6.87
2018-07-24T17:52:13.144Z,6.43
2018-07-24T17:54:44.297Z,6.63
2018-07-24T17:57:14.974Z,6.40
2018-07-24T17:59:45.616Z,7.60
2018-07-24T18:02:16.297Z,7.80
2018-07-24T18:04:46.986Z,9.07
2018-07-24T18:07:17.665Z,8.80
2018-07-24T18:09:48.333Z,8.23
2018-07-24T18:12:19.038Z,7.20
2018-07-24T18:14:49.729Z,7.37
2018-07-24T18:17:20.487Z,7.57
2018-07-24T18:19:51.181Z,8.43
2018-07-24T18:22:21.900Z,8.00
2018-07-24T18:24:52.566Z,7.97
2018-07-24T18:27:23.240Z,7.77
2018-07-24T18:29:54.015Z,7.23
2018-07-24T18:32:24.716Z,9.40
2018-07-24T18:34:55.497Z,8.80
2018-07-24T18:37:26.220Z,7.73
2018-07-24T18:39:56.307Z,7.67
2018-07-24T18:42:26.938Z,7.77
2018-07-24T18:44:57.913Z,7.67
2018-07-24T18:47:28.550Z,6.30
2018-07-24T18:49:59.219Z,6.40
2018-07-24T18:52:29.877Z,6.43
2018-07-24T18:55:00.585Z,6.13
2018-07-24T18:57:31.382Z,5.97
2018-07-24T19:00:02.106Z,6.50
2018-07-24T19:02:32.803Z,6.17
2018-07-24T19:05:03.525Z,6.40
2018-07-24T19:07:34.163Z,6.50
2018-07-24T19:10:05.403Z,6.60
2018-07-24T19:12:36.111Z,6.07
2018-07-24T19:15:08.218Z,6.40
2018-07-24T19:17:38.925Z,6.60
2018-07-24T19:20:09.576Z,7.83
2018-07-24T19:22:40.238Z,7.30
2018-07-24T19:25:10.944Z,7.07
2018-07-24T19:27:41.592Z,6.67
2018-07-24T19:30:12.308Z,7.20
2018-07-24T19:32:43.409Z,6.87
2018-07-24T19:35:14.086Z,7.00
2018-07-24T19:37:44.839Z,6.97
2018-07-24T19:40:15.518Z,6.63
2018-07-24T19:42:46.205Z,6.83
2018-07-24T19:45:16.929Z,7.07
2018-07-24T19:47:47.706Z,7.20
2018-07-24T19:50:18.451Z,7.30
2018-07-24T19:52:49.105Z,7.73
2018-07-24T19:55:19.775Z,7.53
2018-07-24T19:57:50.393Z,8.07
2018-07-24T20:00:21.087Z,8.10
2018-07-24T20:02:51.786Z,8.50
2018-07-24T20:05:21.896Z,8.40
2018-07-24T20:07:52.596Z,7.63
2018-07-24T20:10:23.248Z,7.37
2018-07-24T20:12:53.937Z,7.67
2018-07-24T20:15:24.647Z,7.77
2018-07-24T20:17:55.367Z,9.67
2018-07-24T20:20:26.049Z,9.23
2018-07-24T20:22:56.886Z,8.33
2018-07-24T20:25:27.420Z,8.80
2018-07-24T20:27:58.552Z,7.23
2018-07-24T20:30:29.702Z,7.57
2018-07-24T20:33:01.100Z,7.33
2018-07-24T20:35:32.987Z,7.73
2018-07-24T20:38:03.747Z,8.10
2018-07-24T20:40:35.033Z,7.70
2018-07-24T20:43:06.788Z,7.03
2018-07-24T20:45:38.293Z,7.17
2018-07-24T20:48:09.508Z,7.57
2018-07-24T20:50:40.734Z,7.40
2018-07-24T20:53:12.299Z,7.40
2018-07-24T20:55:43.090Z,7.77
2018-07-24T20:58:14.230Z,7.33
2018-07-24T21:00:44.924Z,7.47
2018-07-24T21:03:15.642Z,8.30
2018-07-24T21:05:46.371Z,7.80
2018-07-24T21:08:17.076Z,8.30
2018-07-24T21:10:47.751Z,7.70
2018-07-24T21:13:18.971Z,7.90
2018-07-24T21:15:50.567Z,7.70
2018-07-24T21:18:22.160Z,7.50
2018-07-24T21:20:54.008Z,8.20
2018-07-24T21:23:25.370Z,8.53
2018-07-24T21:25:56.777Z,7.47
2018-07-24T21:28:27.963Z,7.37
2018-07-24T21:30:59.359Z,7.50
2018-07-24T21:33:30.933Z,7.80
2018-07-24T21:36:02.082Z,7.80
2018-07-24T21:38:33.263Z,7.47
2018-07-24T21:41:04.663Z,7.47
2018-07-24T21:43:36.029Z,7.60
2018-07-24T21:46:07.467Z,7.80
2018-07-24T21:48:38.819Z,8.37
2018-07-24T21:51:10.208Z,8.13
2018-07-24T21:53:41.374Z,7.97
2018-07-24T21:56:13.779Z,7.97
2018-07-24T21:58:45.125Z,7.93
2018-07-24T22:01:16.397Z,7.87
2018-07-24T22:03:47.527Z,7.73
2018-07-24T22:06:18.764Z,8.00
2018-07-24T22:08:50.260Z,8.40
2018-07-24T22:11:21.335Z,7.87
2018-07-24T22:13:52.965Z,8.13
2018-07-24T22:16:24.127Z,8.47
2018-07-24T22:18:55.731Z,8.40
2018-07-24T22:21:27.065Z,8.60
2018-07-24T22:23:59.004Z,8.13
2018-07-24T22:26:30.429Z,8.27
2018-07-24T22:29:01.802Z,8.20
2018-07-24T22:31:33.168Z,7.90
2018-07-24T22:34:04.636Z,8.20
2018-07-24T22:36:36.240Z,7.80
2018-07-24T22:39:12.053Z,8.03
2018-07-24T22:41:43.276Z,8.23
2018-07-24T22:44:14.467Z,7.83
2018-07-24T22:46:46.255Z,9.07
2018-07-24T22:49:17.639Z,8.80
2018-07-24T22:51:48.850Z,7.90
2018-07-24T22:54:19.987Z,9.00
2018-07-24T22:56:51.236Z,8.30
2018-07-24T22:59:22.463Z,8.63
2018-07-24T23:01:53.585Z,8.20
2018-07-24T23:04:24.775Z,8.27
2018-07-24T23:06:55.970Z,8.30
2018-07-24T23:09:27.128Z,8.30
2018-07-24T23:11:58.367Z,8.37
2018-07-24T23:14:29.551Z,8.13
2018-07-24T23:17:00.805Z,8.40
2018-07-24T23:19:32.114Z,8.43
2018-07-24T23:22:03.495Z,8.50
2018-07-24T23:24:35.163Z,8.60
2018-07-24T23:27:06.440Z,8.77
2018-07-24T23:29:37.902Z,8.53
2018-07-24T23:32:09.243Z,8.43
2018-07-24T23:34:40.491Z,8.37
2018-07-24T23:37:11.165Z,8.60
2018-07-24T23:39:41.867Z,8.57
2018-07-24T23:42:12.547Z,8.80
2018-07-24T23:44:43.308Z,9.37
2018-07-24T23:47:14.740Z,9.40
2018-07-24T23:49:45.407Z,8.57
2018-07-24T23:52:16.124Z,8.77
2018-07-24T23:54:46.769Z,8.43
2018-07-24T23:57:17.505Z,8.20
2018-07-24T23:59:48.175Z,8.67
